Aviation Digital Data Service (ADDS)

Output produced by METARs form (0816 UTC 19 April 2019)
found at http://www.aviationweather.gov/metar/data/
 
METAR text: UUMO 190800Z 07004MPS CAVOK 10/M06 Q1030 R26/090060 NOSIG RMK QFE757/1010
Conditions at: UUMO (OSTAFYEVO INTL , RU) observed 0800 UTC 19 April 2019
Temperature: 10.0°C (50°F)
Dewpoint: -6.0°C (21°F) [RH = 32%]
Pressure (altimeter): 30.41 inches Hg (1030.0 mb)
Winds: from the ENE (70 degrees) at 9 MPH (8 knots; 4.1 m/s)
Visibility: 6 or more miles (10+ km)
Ceiling: ceiling and visibility are OK
Clouds: unknown
Weather: no significant weather observed at this time

METAR text: UUMO 190730Z 06004MPS 030V100 CAVOK 09/M07 Q1030 R26/090060 NOSIG RMK QFE757/1009
Conditions at: UUMO (OSTAFYEVO INTL , RU) observed 0730 UTC 19 April 2019
Temperature: 9.0°C (48°F)
Dewpoint: -7.0°C (19°F) [RH = 32%]
Pressure (altimeter): 30.41 inches Hg (1030.0 mb)
Winds: from the ENE (60 degrees) at 9 MPH (8 knots; 4.1 m/s)
Visibility: 6 or more miles (10+ km)
Ceiling: ceiling and visibility are OK
Clouds: unknown
Weather: no significant weather observed at this time

METAR text: UUMO 190700Z 04006MPS CAVOK 09/M07 Q1030 R26/090060 NOSIG RMK QFE757/1010
Conditions at: UUMO (OSTAFYEVO INTL , RU) observed 0700 UTC 19 April 2019
Temperature: 9.0°C (48°F)
Dewpoint: -7.0°C (19°F) [RH = 32%]
Pressure (altimeter): 30.41 inches Hg (1030.0 mb)
Winds: from the NE (40 degrees) at 14 MPH (12 knots; 6.2 m/s)
Visibility: 6 or more miles (10+ km)
Ceiling: ceiling and visibility are OK
Clouds: unknown
Weather: no significant weather observed at this time

METAR text: UUMO 190630Z 03004MPS 330V090 CAVOK 09/M05 Q1030 R26/090060 NOSIG RMK QFE757/1010
Conditions at: UUMO (OSTAFYEVO INTL , RU) observed 0630 UTC 19 April 2019
Temperature: 9.0°C (48°F)
Dewpoint: -5.0°C (23°F) [RH = 37%]
Pressure (altimeter): 30.41 inches Hg (1030.0 mb)
Winds: from the NNE (30 degrees) at 9 MPH (8 knots; 4.1 m/s)
Visibility: 6 or more miles (10+ km)
Ceiling: ceiling and visibility are OK
Clouds: unknown
Weather: no significant weather observed at this time

METAR text: UUMO 190600Z 04003MPS 360V070 CAVOK 08/M05 Q1030 R26/090060 NOSIG RMK QFE757/1010
Conditions at: UUMO (OSTAFYEVO INTL , RU) observed 0600 UTC 19 April 2019
Temperature: 8.0°C (46°F)
Dewpoint: -5.0°C (23°F) [RH = 39%]
Pressure (altimeter): 30.41 inches Hg (1030.0 mb)
Winds: from the NE (40 degrees) at 7 MPH (6 knots; 3.1 m/s)
Visibility: 6 or more miles (10+ km)
Ceiling: ceiling and visibility are OK
Clouds: unknown
Weather: no significant weather observed at this time

METAR text: UUMO 190530Z 03003MPS 360V080 CAVOK 07/M04 Q1030 R08/090060 NOSIG RMK QFE758/1010
Conditions at: UUMO (OSTAFYEVO INTL , RU) observed 0530 UTC 19 April 2019
Temperature: 7.0°C (45°F)
Dewpoint: -4.0°C (25°F) [RH = 45%]
Pressure (altimeter): 30.41 inches Hg (1030.0 mb)
Winds: from the NNE (30 degrees) at 7 MPH (6 knots; 3.1 m/s)
Visibility: 6 or more miles (10+ km)
Ceiling: ceiling and visibility are OK
Clouds: unknown
Weather: no significant weather observed at this time

METAR text: UUMO 190500Z 03003MPS 360V080 CAVOK 06/M04 Q1030 R08/090060 NOSIG RMK QFE758/1010
Conditions at: UUMO (OSTAFYEVO INTL , RU) observed 0500 UTC 19 April 2019
Temperature: 6.0°C (43°F)
Dewpoint: -4.0°C (25°F) [RH = 49%]
Pressure (altimeter): 30.41 inches Hg (1030.0 mb)
Winds: from the NNE (30 degrees) at 7 MPH (6 knots; 3.1 m/s)
Visibility: 6 or more miles (10+ km)
Ceiling: ceiling and visibility are OK
Clouds: unknown
Weather: no significant weather observed at this time

METAR text: UUMO 190430Z 04003MPS CAVOK 05/M03 Q1030 R08/090060 NOSIG RMK QFE757/1010
Conditions at: UUMO (OSTAFYEVO INTL , RU) observed 0430 UTC 19 April 2019
Temperature: 5.0°C (41°F)
Dewpoint: -3.0°C (27°F) [RH = 56%]
Pressure (altimeter): 30.41 inches Hg (1030.0 mb)
Winds: from the NE (40 degrees) at 7 MPH (6 knots; 3.1 m/s)
Visibility: 6 or more miles (10+ km)
Ceiling: ceiling and visibility are OK
Clouds: unknown
Weather: no significant weather observed at this time

METAR text: UUMO 190400Z 04003MPS CAVOK 05/M03 Q1030 R08/090060 NOSIG RMK QFE757/1010
Conditions at: UUMO (OSTAFYEVO INTL , RU) observed 0400 UTC 19 April 2019
Temperature: 5.0°C (41°F)
Dewpoint: -3.0°C (27°F) [RH = 56%]
Pressure (altimeter): 30.41 inches Hg (1030.0 mb)
Winds: from the NE (40 degrees) at 7 MPH (6 knots; 3.1 m/s)
Visibility: 6 or more miles (10+ km)
Ceiling: ceiling and visibility are OK
Clouds: unknown
Weather: no significant weather observed at this time

METAR text: UUMO 190330Z VRB01MPS CAVOK 04/M01 Q1030 R08/090060 NOSIG RMK QFE757/1010
Conditions at: UUMO (OSTAFYEVO INTL , RU) observed 0330 UTC 19 April 2019
Temperature: 4.0°C (39°F)
Dewpoint: -1.0°C (30°F) [RH = 70%]
Pressure (altimeter): 30.41 inches Hg (1030.0 mb)
Winds: variable direction winds at 2 MPH (2 knots; 1.0 m/s)
Visibility: 6 or more miles (10+ km)
Ceiling: ceiling and visibility are OK
Clouds: unknown
Weather: no significant weather observed at this time

METAR text: UUMO 190300Z 02003MPS CAVOK 02/M03 Q1029 R08/090060 NOSIG RMK QFE757/1010
Conditions at: UUMO (OSTAFYEVO INTL , RU) observed 0300 UTC 19 April 2019
Temperature: 2.0°C (36°F)
Dewpoint: -3.0°C (27°F) [RH = 69%]
Pressure (altimeter): 30.38 inches Hg (1029.0 mb)
Winds: from the NNE (20 degrees) at 7 MPH (6 knots; 3.1 m/s)
Visibility: 6 or more miles (10+ km)
Ceiling: ceiling and visibility are OK
Clouds: unknown
Weather: no significant weather observed at this time

METAR text: UUMO 190230Z 03002MPS CAVOK 01/M04 Q1029 R08/090060 NOSIG RMK QFE757/1009
Conditions at: UUMO (OSTAFYEVO INTL , RU) observed 0230 UTC 19 April 2019
Temperature: 1.0°C (34°F)
Dewpoint: -4.0°C (25°F) [RH = 69%]
Pressure (altimeter): 30.38 inches Hg (1029.0 mb)
Winds: from the NNE (30 degrees) at 5 MPH (4 knots; 2.1 m/s)
Visibility: 6 or more miles (10+ km)
Ceiling: ceiling and visibility are OK
Clouds: unknown
Weather: no significant weather observed at this time

METAR text: UUMO 190200Z 03003MPS CAVOK 02/M04 Q1029 R08/090060 NOSIG RMK QFE757/1009
Conditions at: UUMO (OSTAFYEVO INTL , RU) observed 0200 UTC 19 April 2019
Temperature: 2.0°C (36°F)
Dewpoint: -4.0°C (25°F) [RH = 64%]
Pressure (altimeter): 30.38 inches Hg (1029.0 mb)
Winds: from the NNE (30 degrees) at 7 MPH (6 knots; 3.1 m/s)
Visibility: 6 or more miles (10+ km)
Ceiling: ceiling and visibility are OK
Clouds: unknown
Weather: no significant weather observed at this time

METAR text: UUMO 190130Z 03003MPS CAVOK 02/M03 Q1029 R08/090060 NOSIG RMK QFE757/1010
Conditions at: UUMO (OSTAFYEVO INTL , RU) observed 0130 UTC 19 April 2019
Temperature: 2.0°C (36°F)
Dewpoint: -3.0°C (27°F) [RH = 69%]
Pressure (altimeter): 30.38 inches Hg (1029.0 mb)
Winds: from the NNE (30 degrees) at 7 MPH (6 knots; 3.1 m/s)
Visibility: 6 or more miles (10+ km)
Ceiling: ceiling and visibility are OK
Clouds: unknown
Weather: no significant weather observed at this time

METAR text: UUMO 190100Z 02003MPS CAVOK 04/M02 Q1029 R08/090060 NOSIG RMK QFE757/1010
Conditions at: UUMO (OSTAFYEVO INTL , RU) observed 0100 UTC 19 April 2019
Temperature: 4.0°C (39°F)
Dewpoint: -2.0°C (28°F) [RH = 65%]
Pressure (altimeter): 30.38 inches Hg (1029.0 mb)
Winds: from the NNE (20 degrees) at 7 MPH (6 knots; 3.1 m/s)
Visibility: 6 or more miles (10+ km)
Ceiling: ceiling and visibility are OK
Clouds: unknown
Weather: no significant weather observed at this time

METAR text: UUMO 190030Z 03002MPS CAVOK 04/M03 Q1029 R08/090060 NOSIG RMK QFE757/1010
Conditions at: UUMO (OSTAFYEVO INTL , RU) observed 0030 UTC 19 April 2019
Temperature: 4.0°C (39°F)
Dewpoint: -3.0°C (27°F) [RH = 60%]
Pressure (altimeter): 30.38 inches Hg (1029.0 mb)
Winds: from the NNE (30 degrees) at 5 MPH (4 knots; 2.1 m/s)
Visibility: 6 or more miles (10+ km)
Ceiling: ceiling and visibility are OK
Clouds: unknown
Weather: no significant weather observed at this time

METAR text: UUMO 182030Z 08004MPS CAVOK 06/M02 Q1029 R08/090060 NOSIG RMK QFE756/1009
Conditions at: UUMO (OSTAFYEVO INTL , RU) observed 2030 UTC 18 April 2019
Temperature: 6.0°C (43°F)
Dewpoint: -2.0°C (28°F) [RH = 56%]
Pressure (altimeter): 30.38 inches Hg (1029.0 mb)
Winds: from the E (80 degrees) at 9 MPH (8 knots; 4.1 m/s)
Visibility: 6 or more miles (10+ km)
Ceiling: ceiling and visibility are OK
Clouds: unknown
Weather: no significant weather observed at this time

METAR text: UUMO 182000Z 08003MPS CAVOK 06/M04 Q1029 R08/090060 NOSIG RMK QFE756/1009
Conditions at: UUMO (OSTAFYEVO INTL , RU) observed 2000 UTC 18 April 2019
Temperature: 6.0°C (43°F)
Dewpoint: -4.0°C (25°F) [RH = 49%]
Pressure (altimeter): 30.38 inches Hg (1029.0 mb)
Winds: from the E (80 degrees) at 7 MPH (6 knots; 3.1 m/s)
Visibility: 6 or more miles (10+ km)
Ceiling: ceiling and visibility are OK
Clouds: unknown
Weather: no significant weather observed at this time

METAR text: UUMO 181930Z 07004MPS CAVOK 06/M04 Q1028 R08/090060 NOSIG RMK QFE756/1009
Conditions at: UUMO (OSTAFYEVO INTL , RU) observed 1930 UTC 18 April 2019
Temperature: 6.0°C (43°F)
Dewpoint: -4.0°C (25°F) [RH = 49%]
Pressure (altimeter): 30.35 inches Hg (1028.0 mb)
Winds: from the ENE (70 degrees) at 9 MPH (8 knots; 4.1 m/s)
Visibility: 6 or more miles (10+ km)
Ceiling: ceiling and visibility are OK
Clouds: unknown
Weather: no significant weather observed at this time

METAR text: UUMO 181900Z 06004MPS CAVOK 06/M06 Q1028 R08/090060 NOSIG RMK QFE756/1008
Conditions at: UUMO (OSTAFYEVO INTL , RU) observed 1900 UTC 18 April 2019
Temperature: 6.0°C (43°F)
Dewpoint: -6.0°C (21°F) [RH = 42%]
Pressure (altimeter): 30.35 inches Hg (1028.0 mb)
Winds: from the ENE (60 degrees) at 9 MPH (8 knots; 4.1 m/s)
Visibility: 6 or more miles (10+ km)
Ceiling: ceiling and visibility are OK
Clouds: unknown
Weather: no significant weather observed at this time

METAR text: UUMO 181830Z 07004MPS CAVOK 07/M05 Q1028 R08/090060 NOSIG RMK QFE756/1008
Conditions at: UUMO (OSTAFYEVO INTL , RU) observed 1830 UTC 18 April 2019
Temperature: 7.0°C (45°F)
Dewpoint: -5.0°C (23°F) [RH = 42%]
Pressure (altimeter): 30.35 inches Hg (1028.0 mb)
Winds: from the ENE (70 degrees) at 9 MPH (8 knots; 4.1 m/s)
Visibility: 6 or more miles (10+ km)
Ceiling: ceiling and visibility are OK
Clouds: unknown
Weather: no significant weather observed at this time

METAR text: UUMO 181800Z 07004MPS CAVOK 07/M05 Q1028 R08/090060 NOSIG RMK QFE756/1008
Conditions at: UUMO (OSTAFYEVO INTL , RU) observed 1800 UTC 18 April 2019
Temperature: 7.0°C (45°F)
Dewpoint: -5.0°C (23°F) [RH = 42%]
Pressure (altimeter): 30.35 inches Hg (1028.0 mb)
Winds: from the ENE (70 degrees) at 9 MPH (8 knots; 4.1 m/s)
Visibility: 6 or more miles (10+ km)
Ceiling: ceiling and visibility are OK
Clouds: unknown
Weather: no significant weather observed at this time

METAR text: UUMO 181730Z 07004MPS CAVOK 08/M05 Q1028 R08/090060 NOSIG RMK QFE756/1008
Conditions at: UUMO (OSTAFYEVO INTL , RU) observed 1730 UTC 18 April 2019
Temperature: 8.0°C (46°F)
Dewpoint: -5.0°C (23°F) [RH = 39%]
Pressure (altimeter): 30.35 inches Hg (1028.0 mb)
Winds: from the ENE (70 degrees) at 9 MPH (8 knots; 4.1 m/s)
Visibility: 6 or more miles (10+ km)
Ceiling: ceiling and visibility are OK
Clouds: unknown
Weather: no significant weather observed at this time

METAR text: UUMO 181700Z 04004MPS CAVOK 07/M06 Q1027 R08/090060 NOSIG RMK QFE756/1008
Conditions at: UUMO (OSTAFYEVO INTL , RU) observed 1700 UTC 18 April 2019
Temperature: 7.0°C (45°F)
Dewpoint: -6.0°C (21°F) [RH = 39%]
Pressure (altimeter): 30.32 inches Hg (1027.0 mb)
Winds: from the NE (40 degrees) at 9 MPH (8 knots; 4.1 m/s)
Visibility: 6 or more miles (10+ km)
Ceiling: ceiling and visibility are OK
Clouds: unknown
Weather: no significant weather observed at this time

METAR text: UUMO 181630Z 05003MPS CAVOK 08/M05 Q1027 R08/090060 NOSIG RMK QFE755/1007
Conditions at: UUMO (OSTAFYEVO INTL , RU) observed 1630 UTC 18 April 2019
Temperature: 8.0°C (46°F)
Dewpoint: -5.0°C (23°F) [RH = 39%]
Pressure (altimeter): 30.32 inches Hg (1027.0 mb)
Winds: from the NE (50 degrees) at 7 MPH (6 knots; 3.1 m/s)
Visibility: 6 or more miles (10+ km)
Ceiling: ceiling and visibility are OK
Clouds: unknown
Weather: no significant weather observed at this time

METAR text: UUMO 181600Z 06004MPS CAVOK 09/M04 Q1027 R08/090060 NOSIG RMK QFE755/1007
Conditions at: UUMO (OSTAFYEVO INTL , RU) observed 1600 UTC 18 April 2019
Temperature: 9.0°C (48°F)
Dewpoint: -4.0°C (25°F) [RH = 40%]
Pressure (altimeter): 30.32 inches Hg (1027.0 mb)
Winds: from the ENE (60 degrees) at 9 MPH (8 knots; 4.1 m/s)
Visibility: 6 or more miles (10+ km)
Ceiling: ceiling and visibility are OK
Clouds: unknown
Weather: no significant weather observed at this time

METAR text: UUMO 181530Z 03004MPS CAVOK 09/M05 Q1027 R08/090060 NOSIG RMK QFE755/1007
Conditions at: UUMO (OSTAFYEVO INTL , RU) observed 1530 UTC 18 April 2019
Temperature: 9.0°C (48°F)
Dewpoint: -5.0°C (23°F) [RH = 37%]
Pressure (altimeter): 30.32 inches Hg (1027.0 mb)
Winds: from the NNE (30 degrees) at 9 MPH (8 knots; 4.1 m/s)
Visibility: 6 or more miles (10+ km)
Ceiling: ceiling and visibility are OK
Clouds: unknown
Weather: no significant weather observed at this time

METAR text: UUMO 181500Z 05004MPS 010V080 CAVOK 10/M04 Q1026 R08/090060 NOSIG RMK QFE755/1007
Conditions at: UUMO (OSTAFYEVO INTL , RU) observed 1500 UTC 18 April 2019
Temperature: 10.0°C (50°F)
Dewpoint: -4.0°C (25°F) [RH = 37%]
Pressure (altimeter): 30.30 inches Hg (1026.0 mb)
Winds: from the NE (50 degrees) at 9 MPH (8 knots; 4.1 m/s)
Visibility: 6 or more miles (10+ km)
Ceiling: ceiling and visibility are OK
Clouds: unknown
Weather: no significant weather observed at this time

METAR text: UUMO 181430Z 05004MPS CAVOK 10/M04 Q1026 R08/090060 NOSIG RMK QFE755/1006
Conditions at: UUMO (OSTAFYEVO INTL , RU) observed 1430 UTC 18 April 2019
Temperature: 10.0°C (50°F)
Dewpoint: -4.0°C (25°F) [RH = 37%]
Pressure (altimeter): 30.30 inches Hg (1026.0 mb)
Winds: from the NE (50 degrees) at 9 MPH (8 knots; 4.1 m/s)
Visibility: 6 or more miles (10+ km)
Ceiling: ceiling and visibility are OK
Clouds: unknown
Weather: no significant weather observed at this time

METAR text: UUMO 181400Z 05004MPS 360V080 CAVOK 10/M04 Q1026 R08/090060 NOSIG RMK QFE755/1006
Conditions at: UUMO (OSTAFYEVO INTL , RU) observed 1400 UTC 18 April 2019
Temperature: 10.0°C (50°F)
Dewpoint: -4.0°C (25°F) [RH = 37%]
Pressure (altimeter): 30.30 inches Hg (1026.0 mb)
Winds: from the NE (50 degrees) at 9 MPH (8 knots; 4.1 m/s)
Visibility: 6 or more miles (10+ km)
Ceiling: ceiling and visibility are OK
Clouds: unknown
Weather: no significant weather observed at this time

METAR text: UUMO 181330Z 05004MPS CAVOK 10/M05 Q1026 R08/090060 NOSIG RMK QFE754/1006
Conditions at: UUMO (OSTAFYEVO INTL , RU) observed 1330 UTC 18 April 2019
Temperature: 10.0°C (50°F)
Dewpoint: -5.0°C (23°F) [RH = 34%]
Pressure (altimeter): 30.30 inches Hg (1026.0 mb)
Winds: from the NE (50 degrees) at 9 MPH (8 knots; 4.1 m/s)
Visibility: 6 or more miles (10+ km)
Ceiling: ceiling and visibility are OK
Clouds: unknown
Weather: no significant weather observed at this time

METAR text: UUMO 181230Z 06004MPS CAVOK 11/M04 Q1026 R08/090060 NOSIG RMK QFE754/1006
Conditions at: UUMO (OSTAFYEVO INTL , RU) observed 1230 UTC 18 April 2019
Temperature: 11.0°C (52°F)
Dewpoint: -4.0°C (25°F) [RH = 35%]
Pressure (altimeter): 30.30 inches Hg (1026.0 mb)
Winds: from the ENE (60 degrees) at 9 MPH (8 knots; 4.1 m/s)
Visibility: 6 or more miles (10+ km)
Ceiling: ceiling and visibility are OK
Clouds: unknown
Weather: no significant weather observed at this time

METAR text: UUMO 181200Z 07005MPS CAVOK 10/M05 Q1026 R08/090060 NOSIG RMK QFE754/1006
Conditions at: UUMO (OSTAFYEVO INTL , RU) observed 1200 UTC 18 April 2019
Temperature: 10.0°C (50°F)
Dewpoint: -5.0°C (23°F) [RH = 34%]
Pressure (altimeter): 30.30 inches Hg (1026.0 mb)
Winds: from the ENE (70 degrees) at 12 MPH (10 knots; 5.1 m/s)
Visibility: 6 or more miles (10+ km)
Ceiling: ceiling and visibility are OK
Clouds: unknown
Weather: no significant weather observed at this time

METAR text: UUMO 181130Z 07002MPS CAVOK 11/M05 Q1026 R08/090060 NOSIG RMK QFE754/1006
Conditions at: UUMO (OSTAFYEVO INTL , RU) observed 1130 UTC 18 April 2019
Temperature: 11.0°C (52°F)
Dewpoint: -5.0°C (23°F) [RH = 32%]
Pressure (altimeter): 30.30 inches Hg (1026.0 mb)
Winds: from the ENE (70 degrees) at 5 MPH (4 knots; 2.1 m/s)
Visibility: 6 or more miles (10+ km)
Ceiling: ceiling and visibility are OK
Clouds: unknown
Weather: no significant weather observed at this time

METAR text: UUMO 181100Z 05003MPS CAVOK 11/M05 Q1026 R26/090060 NOSIG RMK QFE754/1005
Conditions at: UUMO (OSTAFYEVO INTL , RU) observed 1100 UTC 18 April 2019
Temperature: 11.0°C (52°F)
Dewpoint: -5.0°C (23°F) [RH = 32%]
Pressure (altimeter): 30.30 inches Hg (1026.0 mb)
Winds: from the NE (50 degrees) at 7 MPH (6 knots; 3.1 m/s)
Visibility: 6 or more miles (10+ km)
Ceiling: ceiling and visibility are OK
Clouds: unknown
Weather: no significant weather observed at this time

METAR text: UUMO 181030Z 06003MPS CAVOK 11/M05 Q1026 R26/090060 NOSIG RMK QFE754/1005
Conditions at: UUMO (OSTAFYEVO INTL , RU) observed 1030 UTC 18 April 2019
Temperature: 11.0°C (52°F)
Dewpoint: -5.0°C (23°F) [RH = 32%]
Pressure (altimeter): 30.30 inches Hg (1026.0 mb)
Winds: from the ENE (60 degrees) at 7 MPH (6 knots; 3.1 m/s)
Visibility: 6 or more miles (10+ km)
Ceiling: ceiling and visibility are OK
Clouds: unknown
Weather: no significant weather observed at this time

METAR text: UUMO 181000Z 01002MPS 290V050 CAVOK 11/M05 Q1026 R26/090060 NOSIG RMK QFE754/1005
Conditions at: UUMO (OSTAFYEVO INTL , RU) observed 1000 UTC 18 April 2019
Temperature: 11.0°C (52°F)
Dewpoint: -5.0°C (23°F) [RH = 32%]
Pressure (altimeter): 30.30 inches Hg (1026.0 mb)
Winds: from the N (10 degrees) at 5 MPH (4 knots; 2.1 m/s)
Visibility: 6 or more miles (10+ km)
Ceiling: ceiling and visibility are OK
Clouds: unknown
Weather: no significant weather observed at this time

METAR text: UUMO 180930Z 32002MPS CAVOK 11/M05 Q1026 R26/090060 NOSIG RMK QFE754/1005
Conditions at: UUMO (OSTAFYEVO INTL , RU) observed 0930 UTC 18 April 2019
Temperature: 11.0°C (52°F)
Dewpoint: -5.0°C (23°F) [RH = 32%]
Pressure (altimeter): 30.30 inches Hg (1026.0 mb)
Winds: from the NW (320 degrees) at 5 MPH (4 knots; 2.1 m/s)
Visibility: 6 or more miles (10+ km)
Ceiling: ceiling and visibility are OK
Clouds: unknown
Weather: no significant weather observed at this time

METAR text: UUMO 180900Z 31002MPS CAVOK 11/M05 Q1026 R26/090060 NOSIG RMK QFE754/1005
Conditions at: UUMO (OSTAFYEVO INTL , RU) observed 0900 UTC 18 April 2019
Temperature: 11.0°C (52°F)
Dewpoint: -5.0°C (23°F) [RH = 32%]
Pressure (altimeter): 30.30 inches Hg (1026.0 mb)
Winds: from the NW (310 degrees) at 5 MPH (4 knots; 2.1 m/s)
Visibility: 6 or more miles (10+ km)
Ceiling: ceiling and visibility are OK
Clouds: unknown
Weather: no significant weather observed at this time

METAR text: UUMO 180830Z 07002MPS CAVOK 11/M05 Q1026 R26/090060 NOSIG RMK QFE754/1005
Conditions at: UUMO (OSTAFYEVO INTL , RU) observed 0830 UTC 18 April 2019
Temperature: 11.0°C (52°F)
Dewpoint: -5.0°C (23°F) [RH = 32%]
Pressure (altimeter): 30.30 inches Hg (1026.0 mb)
Winds: from the ENE (70 degrees) at 5 MPH (4 knots; 2.1 m/s)
Visibility: 6 or more miles (10+ km)
Ceiling: ceiling and visibility are OK
Clouds: unknown
Weather: no significant weather observed at this time

METAR text: UUMO 180800Z 36004MPS 300V030 CAVOK 11/M04 Q1026 R26/090060 NOSIG RMK QFE754/1005
Conditions at: UUMO (OSTAFYEVO INTL , RU) observed 0800 UTC 18 April 2019
Temperature: 11.0°C (52°F)
Dewpoint: -4.0°C (25°F) [RH = 35%]
Pressure (altimeter): 30.30 inches Hg (1026.0 mb)
Winds: from the N (360 degrees) at 9 MPH (8 knots; 4.1 m/s)
Visibility: 6 or more miles (10+ km)
Ceiling: ceiling and visibility are OK
Clouds: unknown
Weather: no significant weather observed at this time

METAR text: UUMO 180730Z 02002MPS 330V070 CAVOK 11/M05 Q1026 R26/090060 NOSIG RMK QFE754/1005
Conditions at: UUMO (OSTAFYEVO INTL , RU) observed 0730 UTC 18 April 2019
Temperature: 11.0°C (52°F)
Dewpoint: -5.0°C (23°F) [RH = 32%]
Pressure (altimeter): 30.30 inches Hg (1026.0 mb)
Winds: from the NNE (20 degrees) at 5 MPH (4 knots; 2.1 m/s)
Visibility: 6 or more miles (10+ km)
Ceiling: ceiling and visibility are OK
Clouds: unknown
Weather: no significant weather observed at this time

METAR text: UUMO 180700Z 33002MPS 290V060 CAVOK 10/M05 Q1026 R26/090060 NOSIG RMK QFE754/1005
Conditions at: UUMO (OSTAFYEVO INTL , RU) observed 0700 UTC 18 April 2019
Temperature: 10.0°C (50°F)
Dewpoint: -5.0°C (23°F) [RH = 34%]
Pressure (altimeter): 30.30 inches Hg (1026.0 mb)
Winds: from the NNW (330 degrees) at 5 MPH (4 knots; 2.1 m/s)
Visibility: 6 or more miles (10+ km)
Ceiling: ceiling and visibility are OK
Clouds: unknown
Weather: no significant weather observed at this time

METAR text: UUMO 180630Z VRB01MPS CAVOK 09/M05 Q1026 R26/090060 NOSIG RMK QFE754/1006
Conditions at: UUMO (OSTAFYEVO INTL , RU) observed 0630 UTC 18 April 2019
Temperature: 9.0°C (48°F)
Dewpoint: -5.0°C (23°F) [RH = 37%]
Pressure (altimeter): 30.30 inches Hg (1026.0 mb)
Winds: variable direction winds at 2 MPH (2 knots; 1.0 m/s)
Visibility: 6 or more miles (10+ km)
Ceiling: ceiling and visibility are OK
Clouds: unknown
Weather: no significant weather observed at this time

METAR text: UUMO 180600Z VRB01MPS CAVOK 08/M04 Q1027 R26/090060 NOSIG RMK QFE754/1006
Conditions at: UUMO (OSTAFYEVO INTL , RU) observed 0600 UTC 18 April 2019
Temperature: 8.0°C (46°F)
Dewpoint: -4.0°C (25°F) [RH = 42%]
Pressure (altimeter): 30.32 inches Hg (1027.0 mb)
Winds: variable direction winds at 2 MPH (2 knots; 1.0 m/s)
Visibility: 6 or more miles (10+ km)
Ceiling: ceiling and visibility are OK
Clouds: unknown
Weather: no significant weather observed at this time

METAR text: UUMO 180530Z 28002MPS 190V360 CAVOK 05/M03 Q1027 R26/090060 NOSIG RMK QFE754/1006
Conditions at: UUMO (OSTAFYEVO INTL , RU) observed 0530 UTC 18 April 2019
Temperature: 5.0°C (41°F)
Dewpoint: -3.0°C (27°F) [RH = 56%]
Pressure (altimeter): 30.32 inches Hg (1027.0 mb)
Winds: from the W (280 degrees) at 5 MPH (4 knots; 2.1 m/s)
Visibility: 6 or more miles (10+ km)
Ceiling: ceiling and visibility are OK
Clouds: unknown
Weather: no significant weather observed at this time

METAR text: UUMO 180500Z VRB01MPS CAVOK 04/M03 Q1027 R26/090060 NOSIG RMK QFE755/1006
Conditions at: UUMO (OSTAFYEVO INTL , RU) observed 0500 UTC 18 April 2019
Temperature: 4.0°C (39°F)
Dewpoint: -3.0°C (27°F) [RH = 60%]
Pressure (altimeter): 30.32 inches Hg (1027.0 mb)
Winds: variable direction winds at 2 MPH (2 knots; 1.0 m/s)
Visibility: 6 or more miles (10+ km)
Ceiling: ceiling and visibility are OK
Clouds: unknown
Weather: no significant weather observed at this time

METAR text: UUMO 180430Z 19001MPS CAVOK 03/M03 Q1027 R26/090060 NOSIG RMK QFE755/1007
Conditions at: UUMO (OSTAFYEVO INTL , RU) observed 0430 UTC 18 April 2019
Temperature: 3.0°C (37°F)
Dewpoint: -3.0°C (27°F) [RH = 65%]
Pressure (altimeter): 30.32 inches Hg (1027.0 mb)
Winds: from the S (190 degrees) at 2 MPH (2 knots; 1.0 m/s)
Visibility: 6 or more miles (10+ km)
Ceiling: ceiling and visibility are OK
Clouds: unknown
Weather: no significant weather observed at this time

METAR text: UUMO 180400Z 19001MPS CAVOK 00/M02 Q1028 R26/090060 NOSIG RMK QFE755/1007
Conditions at: UUMO (OSTAFYEVO INTL , RU) observed 0400 UTC 18 April 2019
Temperature: 0.0°C (32°F)
Dewpoint: -2.0°C (28°F) [RH = 86%]
Pressure (altimeter): 30.35 inches Hg (1028.0 mb)
Winds: from the S (190 degrees) at 2 MPH (2 knots; 1.0 m/s)
Visibility: 6 or more miles (10+ km)
Ceiling: ceiling and visibility are OK
Clouds: unknown
Weather: no significant weather observed at this time

METAR text: UUMO 180330Z 00000MPS CAVOK M01/M04 Q1028 R26/090060 NOSIG RMK QFE755/1007
Conditions at: UUMO (OSTAFYEVO INTL , RU) observed 0330 UTC 18 April 2019
Temperature: -1.0°C (30°F)
Dewpoint: -4.0°C (25°F) [RH = 80%]
Pressure (altimeter): 30.35 inches Hg (1028.0 mb)
Winds: calm
Visibility: 6 or more miles (10+ km)
Ceiling: ceiling and visibility are OK
Clouds: unknown
Weather: no significant weather observed at this time

METAR text: UUMO 180300Z 19001MPS CAVOK M01/M03 Q1028 R26/090060 NOSIG RMK QFE755/1007
Conditions at: UUMO (OSTAFYEVO INTL , RU) observed 0300 UTC 18 April 2019
Temperature: -1.0°C (30°F)
Dewpoint: -3.0°C (27°F) [RH = 86%]
Pressure (altimeter): 30.35 inches Hg (1028.0 mb)
Winds: from the S (190 degrees) at 2 MPH (2 knots; 1.0 m/s)
Visibility: 6 or more miles (10+ km)
Ceiling: ceiling and visibility are OK
Clouds: unknown
Weather: no significant weather observed at this time

METAR text: UUMO 180230Z 00000MPS CAVOK 00/M03 Q1028 R26/090060 NOSIG RMK QFE755/1007
Conditions at: UUMO (OSTAFYEVO INTL , RU) observed 0230 UTC 18 April 2019
Temperature: 0.0°C (32°F)
Dewpoint: -3.0°C (27°F) [RH = 80%]
Pressure (altimeter): 30.35 inches Hg (1028.0 mb)
Winds: calm
Visibility: 6 or more miles (10+ km)
Ceiling: ceiling and visibility are OK
Clouds: unknown
Weather: no significant weather observed at this time

METAR text: UUMO 180200Z VRB01MPS CAVOK 01/M04 Q1028 R26/090060 NOSIG RMK QFE756/1008
Conditions at: UUMO (OSTAFYEVO INTL , RU) observed 0200 UTC 18 April 2019
Temperature: 1.0°C (34°F)
Dewpoint: -4.0°C (25°F) [RH = 69%]
Pressure (altimeter): 30.35 inches Hg (1028.0 mb)
Winds: variable direction winds at 2 MPH (2 knots; 1.0 m/s)
Visibility: 6 or more miles (10+ km)
Ceiling: ceiling and visibility are OK
Clouds: unknown
Weather: no significant weather observed at this time

METAR text: UUMO 172100Z 13001MPS CAVOK 05/M03 Q1030 R26/090060 NOSIG RMK QFE757/1009
Conditions at: UUMO (OSTAFYEVO INTL , RU) observed 2100 UTC 17 April 2019
Temperature: 5.0°C (41°F)
Dewpoint: -3.0°C (27°F) [RH = 56%]
Pressure (altimeter): 30.41 inches Hg (1030.0 mb)
Winds: from the SE (130 degrees) at 2 MPH (2 knots; 1.0 m/s)
Visibility: 6 or more miles (10+ km)
Ceiling: ceiling and visibility are OK
Clouds: unknown
Weather: no significant weather observed at this time

METAR text: UUMO 172030Z 12002MPS CAVOK 05/M04 Q1030 R26/090060 NOSIG RMK QFE757/1009
Conditions at: UUMO (OSTAFYEVO INTL , RU) observed 2030 UTC 17 April 2019
Temperature: 5.0°C (41°F)
Dewpoint: -4.0°C (25°F) [RH = 52%]
Pressure (altimeter): 30.41 inches Hg (1030.0 mb)
Winds: from the ESE (120 degrees) at 5 MPH (4 knots; 2.1 m/s)
Visibility: 6 or more miles (10+ km)
Ceiling: ceiling and visibility are OK
Clouds: unknown
Weather: no significant weather observed at this time

Forecast for: UUMO (OSTAFYEVO INTL , RU)
Text: TAF UUMO 190751Z 1909/1918 05005MPS CAVOK
Forecast period: 0900 to 1800 UTC 19 April 2019
Forecast type: FROM: standard forecast or significant change
Winds: from the NE (50 degrees) at 12 MPH (10 knots; 5.1 m/s)
Visibility: 6 or more miles 10+ km)
Ceiling: unknown
Clouds: missing
Weather: NSW  (no significant weather)